PHOG METAR and TAF | Updated Today

PHOG METAR

Kahului Airport

Observation time: 16 min. ago

PHOG 070754Z VRB03KT 10SM CLR 24/22 A2995 RMK AO2 SLP147 T02390222

Need help? Read our tutorial on how to read METARs or read the parsed version below.

Kahului Airport (PHOG) METAR

  • Weather conditions on Tue, 07 Dec 2021 07:54:00 +0000 (16 min. ago):
  • Present conditions: Dry
  • Clouds: Clear skies
  • Visibility: 16093 meters
  • Wind: Variable at 3 knots
  • Temperature: 24 celsius
  • Dew point: 22 celsius
  • Pressure: 29.95 inHg
  • Remarks: AO2 SLP147 T02390222


Useful to know...

PHOG TAF

Kahului Airport

PHOG 070528Z 0706/0806 VRB06KT P6SM FEW025 BKN045 BKN200 FM072000 02010KT P6SM FEW025 SCT050 SCT250
Observation time: 2:42 hr. ago
Need help? Read our tutorial on how to read TAFs or read the parsed version below.

Parsed version of TAF for Kahului Airport (PHOG)

  • From 07 December at 06:00 UTC, to day 08 of the month at 06:00 UTC
  • Clouds: A few at 762 meters; broken sky at 1372 meters; broken sky at 6096 meters
  • Wind: Variable at 6
  • From day 7 of the month at 20:00 UTC
  • Clouds: A few at 762 meters; scattered at 1524 meters; scattered at 7620 meters
  • Wind: 20 degrees at 10